Time;durP1;ratioP1;P1;durP2;ratioP2;P2;SDS_P1;SDS_P2;PMS_P1;PMS_P2;Temp;Humidity;BMP_temperature;BMP_pressure;BME280_temperature;BME280_humidity;BME280_pressure;Samples;Min_cycle;Max_cycle;Signal;HPM_P1;HPM_P2
2022/08/21 00:00:51;;;;;;;37.60;6.87;;;;;;;22.15;100.00;100464.78;1715479;83;21062;-69
2022/08/21 00:03:18;;;;;;;33.20;7.50;;;;;;;22.15;100.00;100468.72;1716654;82;21037;-69
2022/08/21 00:05:49;;;;;;;38.25;7.10;;;;;;;22.20;100.00;100466.47;1715032;82;21498;-69
2022/08/21 00:08:19;;;;;;;29.75;6.92;;;;;;;22.26;100.00;100464.61;1717337;82;21052;-69
2022/08/21 00:10:47;;;;;;;35.75;6.60;;;;;;;22.23;100.00;100467.51;1716421;83;21125;-69
2022/08/21 00:13:15;;;;;;;30.50;6.58;;;;;;;22.24;100.00;100458.69;1715870;82;21107;-69
2022/08/21 00:15:43;;;;;;;29.30;6.78;;;;;;;22.30;100.00;100462.53;1716917;82;21514;-69
2022/08/21 00:18:11;;;;;;;33.80;6.25;;;;;;;22.28;100.00;100459.23;1716299;82;21554;-69
2022/08/21 00:20:39;;;;;;;40.75;6.80;;;;;;;22.27;100.00;100454.98;1715389;83;21149;-69
2022/08/21 00:23:07;;;;;;;29.57;6.80;;;;;;;22.30;100.00;100455.48;1712503;83;21031;-69
2022/08/21 00:25:35;;;;;;;32.40;6.58;;;;;;;22.32;100.00;100457.97;1713942;83;21066;-69
2022/08/21 00:28:03;;;;;;;33.85;7.37;;;;;;;22.30;100.00;100460.73;1719602;83;21490;-69
2022/08/21 00:30:31;;;;;;;34.95;6.37;;;;;;;22.26;100.00;100459.38;1715325;82;21023;-69
2022/08/21 00:32:59;;;;;;;27.27;6.42;;;;;;;22.21;100.00;100452.41;1716679;82;21081;-69
2022/08/21 00:35:33;;;;;;;33.98;6.67;;;;;;;22.16;100.00;100455.94;1715352;82;21009;-69
2022/08/21 00:38:00;;;;;;;34.50;6.85;;;;;;;22.09;100.00;100450.45;1715374;82;21074;-69
2022/08/21 00:40:35;;;;;;;28.87;7.08;;;;;;;22.01;100.00;100451.65;1716224;83;21085;-69
2022/08/21 00:43:08;;;;;;;29.72;6.72;;;;;;;21.98;100.00;100449.33;1716633;82;21214;-69
2022/08/21 00:45:35;;;;;;;33.60;6.92;;;;;;;21.98;100.00;100451.95;1716436;82;21171;-69
2022/08/21 00:48:04;;;;;;;37.90;7.05;;;;;;;21.93;100.00;100446.30;1716638;82;21113;-69
2022/08/21 00:50:35;;;;;;;38.10;7.00;;;;;;;21.92;100.00;100429.76;1716495;83;21507;-69
2022/08/21 00:53:05;;;;;;;33.18;7.40;;;;;;;21.91;100.00;100426.78;1714647;82;21086;-69
2022/08/21 00:55:34;;;;;;;34.50;6.83;;;;;;;22.01;100.00;100434.13;1716712;83;21094;-69
2022/08/21 00:58:03;;;;;;;37.73;6.85;;;;;;;21.88;100.00;100436.71;1711872;83;21523;-69
2022/08/21 01:00:34;;;;;;;35.28;7.28;;;;;;;21.87;100.00;100433.77;1683505;84;21043;-70
2022/08/21 01:03:06;;;;;;;32.17;7.37;;;;;;;21.80;100.00;100439.58;1714243;83;21094;-69
2022/08/21 01:05:34;;;;;;;31.52;7.10;;;;;;;21.75;100.00;100428.68;1709758;82;21001;-69
2022/08/21 01:08:03;;;;;;;37.48;7.10;;;;;;;21.66;100.00;100436.09;1718958;83;21172;-69
2022/08/21 01:10:31;;;;;;;37.70;7.00;;;;;;;21.62;100.00;100432.11;1717313;82;21148;-70
2022/08/21 01:12:59;;;;;;;35.38;6.60;;;;;;;21.64;100.00;100431.98;1717571;83;21021;-69
2022/08/21 01:15:34;;;;;;;30.52;6.58;;;;;;;21.57;100.00;100432.55;1715136;82;21082;-69
2022/08/21 01:18:06;;;;;;;28.27;6.53;;;;;;;21.55;100.00;100433.16;1706410;83;21027;-69
2022/08/21 01:20:35;;;;;;;27.70;6.65;;;;;;;21.55;100.00;100432.31;1711977;83;21093;-69
2022/08/21 01:23:05;;;;;;;33.50;6.40;;;;;;;21.52;100.00;100429.50;1717435;83;21002;-68
2022/08/21 01:25:34;;;;;;;37.50;6.78;;;;;;;21.35;100.00;100431.02;1716583;83;21003;-69
2022/08/21 01:28:06;;;;;;;30.95;7.05;;;;;;;21.45;100.00;100428.89;1718409;82;21269;-68
2022/08/21 01:30:37;;;;;;;30.10;6.72;;;;;;;21.44;100.00;100424.63;1717146;82;21047;-69
2022/08/21 01:33:04;;;;;;;36.75;6.92;;;;;;;21.38;100.00;100420.74;1716597;82;21515;-69
2022/08/21 01:35:32;;;;;;;27.05;6.33;;;;;;;21.32;100.00;100418.69;1716343;82;21070;-69
2022/08/21 01:38:00;;;;;;;30.52;6.05;;;;;;;21.26;100.00;100412.70;1717037;83;21102;-69
2022/08/21 01:40:27;;;;;;;35.33;6.92;;;;;;;21.26;100.00;100412.20;1715763;82;21070;-69
2022/08/21 01:42:56;;;;;;;35.30;6.55;;;;;;;21.17;100.00;100411.75;1717431;83;21042;-68
2022/08/21 01:45:23;;;;;;;34.18;7.85;;;;;;;21.19;100.00;100408.02;1716486;82;21040;-69
2022/08/21 01:47:51;;;;;;;31.87;6.97;;;;;;;21.20;100.00;100404.91;1715414;82;21534;-69
2022/08/21 01:50:20;;;;;;;31.82;6.90;;;;;;;21.19;100.00;100411.13;1714598;83;21142;-68
2022/08/21 01:52:48;;;;;;;34.60;6.47;;;;;;;21.19;100.00;100413.75;1716253;82;21029;-69
2022/08/21 01:55:17;;;;;;;36.83;6.87;;;;;;;21.20;100.00;100405.73;1710086;83;21055;-69
2022/08/21 01:57:46;;;;;;;38.35;7.05;;;;;;;21.20;100.00;100414.89;1714161;83;20995;-68
2022/08/21 02:00:17;;;;;;;30.72;6.83;;;;;;;21.17;100.00;100414.37;1715843;82;21016;-69
2022/08/21 02:02:45;;;;;;;25.85;7.03;;;;;;;21.15;100.00;100417.11;1718590;83;21062;-68
2022/08/21 02:05:14;;;;;;;30.62;6.78;;;;;;;21.13;100.00;100423.46;1719261;82;21059;-69
2022/08/21 02:07:46;;;;;;;37.58;6.85;;;;;;;21.08;100.00;100421.23;1714789;82;21549;-68
2022/08/21 02:10:19;;;;;;;29.05;6.78;;;;;;;21.03;100.00;100427.37;1711176;83;21043;-68
2022/08/21 02:12:46;;;;;;;27.75;6.33;;;;;;;21.04;100.00;100426.40;1717474;83;21046;-68
2022/08/21 02:15:14;;;;;;;31.02;6.58;;;;;;;21.04;100.00;100425.09;1715139;82;21085;-68
2022/08/21 02:17:49;;;;;;;35.00;6.83;;;;;;;21.03;100.00;100426.07;1717859;82;21041;-69
2022/08/21 02:20:24;;;;;;;35.40;6.67;;;;;;;21.07;100.00;100429.25;1715520;83;21050;-68
2022/08/21 02:22:53;;;;;;;27.22;6.12;;;;;;;21.06;100.00;100430.19;1715650;82;21070;-68
2022/08/21 02:25:24;;;;;;;34.35;7.03;;;;;;;21.09;100.00;100433.86;1714457;82;21051;-68
2022/08/21 02:27:52;;;;;;;36.35;6.45;;;;;;;21.05;100.00;100441.64;1714122;82;21020;-68
2022/08/21 02:30:25;;;;;;;42.35;7.05;;;;;;;21.03;100.00;100431.30;1716332;83;21510;-68
2022/08/21 02:32:52;;;;;;;32.38;6.28;;;;;;;21.06;100.00;100439.36;1714395;82;21562;-68
2022/08/21 02:35:20;;;;;;;34.58;6.45;;;;;;;21.09;100.00;100439.91;1714630;82;21092;-69
2022/08/21 02:37:59;;;;;;;35.10;6.78;;;;;;;21.06;100.00;100441.48;1714782;82;21534;-69
2022/08/21 02:40:31;;;;;;;34.10;6.70;;;;;;;21.03;100.00;100439.16;1716415;83;21007;-68
2022/08/21 02:43:00;;;;;;;35.48;6.10;;;;;;;21.04;100.00;100440.80;1714585;82;21523;-68
2022/08/21 02:45:30;;;;;;;33.73;6.95;;;;;;;21.03;100.00;100441.77;1716686;82;21035;-68
2022/08/21 02:48:01;;;;;;;25.72;6.42;;;;;;;21.01;100.00;100443.21;1687383;83;21562;-68
2022/08/21 02:50:37;;;;;;;44.03;7.42;;;;;;;21.05;100.00;100445.08;1716324;83;21065;-68
2022/08/21 02:53:06;;;;;;;24.50;6.35;;;;;;;21.08;100.00;100452.64;1714592;82;21090;-68
2022/08/21 02:55:35;;;;;;;42.27;7.35;;;;;;;21.09;100.00;100452.18;1716083;83;21038;-68
2022/08/21 02:58:06;;;;;;;33.80;6.95;;;;;;;21.07;100.00;100450.19;1713803;83;21077;-68
2022/08/21 03:00:35;;;;;;;30.57;6.55;;;;;;;21.08;100.00;100455.75;1714834;83;21036;-68
2022/08/21 03:03:04;;;;;;;32.33;7.05;;;;;;;21.12;100.00;100446.17;1715775;83;21558;-68
2022/08/21 03:05:33;;;;;;;34.03;6.95;;;;;;;21.10;100.00;100450.72;1713620;83;21047;-68
2022/08/21 03:08:04;;;;;;;29.45;6.35;;;;;;;21.05;100.00;100454.23;1715732;83;21136;-69
2022/08/21 03:10:32;;;;;;;35.15;7.08;;;;;;;21.06;100.00;100452.44;1717455;82;21564;-68
2022/08/21 03:12:59;;;;;;;31.62;6.58;;;;;;;21.06;100.00;100458.50;1716661;83;21087;-68
2022/08/21 03:15:26;;;;;;;30.97;6.50;;;;;;;21.10;100.00;100469.03;1716019;83;21019;-67
2022/08/21 03:17:54;;;;;;;39.30;7.00;;;;;;;21.15;100.00;100466.84;1712902;83;21130;-68
2022/08/21 03:20:26;;;;;;;29.20;6.87;;;;;;;21.12;100.00;100462.36;1717604;83;21097;-68
2022/08/21 03:22:55;;;;;;;33.48;6.05;;;;;;;21.14;100.00;100465.18;1718772;82;21576;-68
2022/08/21 03:25:25;;;;;;;34.88;7.22;;;;;;;21.15;100.00;100472.58;1717081;83;21112;-67
2022/08/21 03:27:53;;;;;;;40.43;7.12;;;;;;;21.16;100.00;100475.03;1716567;82;21081;-68
2022/08/21 03:30:22;;;;;;;27.30;6.53;;;;;;;21.17;100.00;100470.64;1715526;82;21101;-68
2022/08/21 03:32:50;;;;;;;36.88;7.37;;;;;;;21.26;100.00;100470.30;1716067;82;21538;-68
2022/08/21 03:35:19;;;;;;;32.75;6.80;;;;;;;21.24;100.00;100471.73;1717410;83;21716;-69
2022/08/21 03:37:47;;;;;;;39.50;6.42;;;;;;;21.33;100.00;100480.08;1716325;82;21054;-68
2022/08/21 03:40:17;;;;;;;35.30;6.80;;;;;;;21.39;100.00;100474.30;1713978;83;21109;-68
2022/08/21 03:42:48;;;;;;;39.42;7.35;;;;;;;21.39;100.00;100472.98;1715766;82;21078;-67
2022/08/21 03:45:17;;;;;;;42.05;6.90;;;;;;;21.43;100.00;100481.89;1718246;82;21053;-68
2022/08/21 03:48:03;;;;;;;33.15;6.80;;;;;;;21.60;100.00;100479.89;1714647;83;22628;-68
2022/08/21 03:50:34;;;;;;;41.60;7.28;;;;;;;21.64;100.00;100480.44;1716128;82;20999;-68
2022/08/21 03:53:01;;;;;;;32.53;6.78;;;;;;;21.69;100.00;100476.41;1718446;82;21530;-68
2022/08/21 03:55:29;;;;;;;32.03;6.78;;;;;;;21.78;100.00;100476.89;1717749;83;21068;-68
2022/08/21 03:57:56;;;;;;;39.30;7.33;;;;;;;21.86;100.00;100478.81;1717055;82;21146;-69
2022/08/21 04:00:25;;;;;;;41.05;7.20;;;;;;;22.01;100.00;100476.55;1718247;83;21162;-68
2022/08/21 04:02:52;;;;;;;42.60;7.58;;;;;;;22.03;100.00;100487.72;1722015;82;21057;-69
2022/08/21 04:05:26;;;;;;;45.63;7.10;;;;;;;22.12;100.00;100482.95;1715226;82;21058;-68
2022/08/21 04:07:58;;;;;;;45.78;6.90;;;;;;;22.18;100.00;100484.99;1715900;83;21082;-68
2022/08/21 04:10:27;;;;;;;29.60;6.55;;;;;;;22.29;100.00;100480.08;1715572;83;21581;-68
2022/08/21 04:12:55;;;;;;;39.70;6.95;;;;;;;22.38;100.00;100482.30;1711318;83;21550;-69
2022/08/21 04:15:25;;;;;;;38.92;7.45;;;;;;;22.46;100.00;100485.03;1716922;83;21036;-69
2022/08/21 04:17:52;;;;;;;34.88;7.28;;;;;;;22.51;100.00;100486.74;1713691;83;21074;-69
2022/08/21 04:20:21;;;;;;;33.85;6.75;;;;;;;22.51;100.00;100485.44;1714917;82;21050;-68
2022/08/21 04:22:50;;;;;;;34.92;6.85;;;;;;;22.58;100.00;100483.86;1720949;83;21030;-68
2022/08/21 04:25:19;;;;;;;40.38;7.08;;;;;;;22.60;100.00;100485.85;1715434;83;21066;-68
2022/08/21 04:27:46;;;;;;;32.03;7.08;;;;;;;22.67;100.00;100478.70;1715717;82;21022;-68
2022/08/21 04:30:16;;;;;;;40.52;7.28;;;;;;;22.79;100.00;100481.49;1721660;82;20999;-68
2022/08/21 04:32:48;;;;;;;34.23;6.95;;;;;;;22.88;100.00;100483.21;1715067;82;21057;-68
2022/08/21 04:35:19;;;;;;;36.40;7.12;;;;;;;22.95;100.00;100475.09;1715635;83;21049;-68
2022/08/21 04:37:46;;;;;;;37.65;6.85;;;;;;;23.02;100.00;100483.72;1716532;82;21542;-67
2022/08/21 04:40:17;;;;;;;31.90;6.95;;;;;;;23.09;100.00;100484.27;1719519;83;21029;-68
2022/08/21 04:42:52;;;;;;;42.58;6.78;;;;;;;23.15;100.00;100485.47;1715394;83;21025;-68
2022/08/21 04:45:30;;;;;;;36.80;6.72;;;;;;;23.19;100.00;100482.88;1713566;83;21514;-69
2022/08/21 04:48:00;;;;;;;32.23;6.30;;;;;;;23.13;100.00;100479.55;1713361;83;21070;-68
2022/08/21 04:51:12;;;;;;;30.95;6.67;;;;;;;23.30;100.00;100485.79;1713022;82;21046;-68
2022/08/21 04:53:44;;;;;;;40.28;6.85;;;;;;;23.29;100.00;100481.00;1715228;83;21048;-68
2022/08/21 04:56:25;;;;;;;50.52;7.47;;;;;;;23.55;100.00;100490.74;1715224;82;21003;-68
2022/08/21 04:58:59;;;;;;;44.23;7.15;;;;;;;23.52;100.00;100481.84;1716221;82;21082;-68
2022/08/21 05:01:29;;;;;;;37.67;6.93;;;;;;;23.63;100.00;100479.48;1715370;83;21551;-68
2022/08/21 05:03:59;;;;;;;33.25;6.65;;;;;;;23.60;100.00;100485.38;1721436;82;21028;-68
2022/08/21 05:06:30;;;;;;;37.85;7.22;;;;;;;23.66;100.00;100481.78;1709923;83;21537;-69
2022/08/21 05:08:58;;;;;;;41.77;7.05;;;;;;;23.79;100.00;100484.37;1712129;83;21133;-68
2022/08/21 05:11:28;;;;;;;40.92;7.92;;;;;;;23.79;100.00;100484.37;1713838;83;21098;-68
2022/08/21 05:13:55;;;;;;;43.50;6.70;;;;;;;23.76;100.00;100471.53;1713703;83;21118;-68
2022/08/21 05:16:24;;;;;;;33.88;6.22;;;;;;;23.88;100.00;100474.73;1696505;83;21100;-68
2022/08/21 05:18:51;;;;;;;36.20;7.10;;;;;;;23.95;100.00;100468.38;1706492;83;21492;-68
2022/08/21 05:21:18;;;;;;;40.60;7.05;;;;;;;23.95;100.00;100461.81;1715159;83;21047;-68
2022/08/21 05:23:46;;;;;;;41.13;7.35;;;;;;;24.07;100.00;100472.86;1684596;83;21127;-68
2022/08/21 05:26:14;;;;;;;32.83;6.87;;;;;;;24.14;100.00;100464.69;1694890;84;21047;-68
2022/08/21 05:28:41;;;;;;;34.75;6.87;;;;;;;24.32;100.00;100467.24;1690029;84;21056;-68
2022/08/21 05:31:08;;;;;;;42.17;7.60;;;;;;;24.44;100.00;100463.84;1692189;83;21051;-68
2022/08/21 05:33:35;;;;;;;35.88;7.00;;;;;;;24.60;100.00;100470.50;1691362;83;21099;-68
2022/08/21 05:36:03;;;;;;;41.10;7.42;;;;;;;24.61;100.00;100468.69;1695042;82;21104;-68
2022/08/21 05:38:30;;;;;;;39.27;6.60;;;;;;;24.72;100.00;100460.50;1697315;83;21102;-68
2022/08/21 05:40:59;;;;;;;39.40;7.78;;;;;;;24.83;100.00;100460.18;1707613;82;21013;-68
2022/08/21 05:43:26;;;;;;;44.77;7.50;;;;;;;24.95;100.00;100448.85;1710746;82;21059;-68
2022/08/21 05:45:53;;;;;;;41.88;8.38;;;;;;;25.11;100.00;100454.13;1691168;84;21023;-68
2022/08/21 05:48:24;;;;;;;54.50;8.20;;;;;;;25.22;100.00;100461.41;1724152;82;21080;-68
2022/08/21 05:50:52;;;;;;;39.18;7.55;;;;;;;25.27;100.00;100458.62;1712015;83;21004;-68
2022/08/21 05:53:22;;;;;;;47.62;8.63;;;;;;;25.37;100.00;100467.18;1722955;83;20995;-68
2022/08/21 05:55:50;;;;;;;48.13;7.92;;;;;;;25.37;100.00;100467.18;1720183;82;21039;-69
2022/08/21 05:58:21;;;;;;;45.28;7.55;;;;;;;25.56;100.00;100469.14;1721757;83;21500;-68
2022/08/21 06:00:50;;;;;;;40.33;7.83;;;;;;;25.66;100.00;100467.65;1721577;83;21028;-69
2022/08/21 06:03:22;;;;;;;45.03;8.13;;;;;;;25.55;100.00;100464.88;1721678;82;21007;-68
2022/08/21 06:05:50;;;;;;;53.95;8.78;;;;;;;25.55;100.00;100464.88;1721519;83;21544;-68
2022/08/21 06:08:19;;;;;;;57.53;8.18;;;;;;;25.68;100.00;100471.76;1721350;83;21040;-69
2022/08/21 06:10:49;;;;;;;54.75;8.30;;;;;;;25.68;100.00;100471.76;1721274;83;22381;-68
2022/08/21 06:13:18;;;;;;;48.68;8.05;;;;;;;25.67;100.00;100452.99;1720288;83;21043;-68
2022/08/21 06:15:46;;;;;;;53.73;8.45;;;;;;;25.89;100.00;100471.72;1714298;83;21024;-68
2022/08/21 06:18:14;;;;;;;50.98;8.05;;;;;;;26.06;100.00;100472.05;1710718;84;21563;-67
2022/08/21 06:20:44;;;;;;;53.48;8.05;;;;;;;26.13;100.00;100464.27;1717289;82;21497;-69
2022/08/21 06:23:12;;;;;;;53.50;8.63;;;;;;;26.40;100.00;100468.30;1719328;83;21027;-68
2022/08/21 06:25:39;;;;;;;50.98;8.30;;;;;;;26.71;100.00;100476.23;1719407;83;21040;-69
2022/08/21 06:28:10;;;;;;;53.38;9.15;;;;;;;26.88;100.00;100478.27;1715906;83;21086;-69
2022/08/21 06:30:39;;;;;;;52.88;9.23;;;;;;;27.06;100.00;100470.57;1720679;83;21043;-69
2022/08/21 06:33:07;;;;;;;54.80;8.80;;;;;;;27.23;100.00;100465.53;1710903;83;21565;-69
2022/08/21 06:35:35;;;;;;;59.73;9.50;;;;;;;27.30;99.88;100469.09;1719557;83;21566;-69
2022/08/21 06:38:03;;;;;;;63.80;9.95;;;;;;;27.26;100.00;100466.98;1721243;83;21055;-70
2022/08/21 06:40:32;;;;;;;66.10;10.70;;;;;;;27.48;100.00;100463.98;1710695;83;21051;-69
2022/08/21 06:43:11;;;;;;;79.72;11.12;;;;;;;27.47;100.00;100467.62;1721054;83;21507;-69
2022/08/21 06:45:38;;;;;;;71.50;10.03;;;;;;;27.65;100.00;100462.00;1710788;83;21079;-69
2022/08/21 06:48:07;;;;;;;77.12;11.83;;;;;;;27.65;100.00;100464.14;1713919;83;21004;-69
2022/08/21 06:50:36;;;;;;;115.17;13.70;;;;;;;27.71;100.00;100455.48;1714367;83;21103;-69
2022/08/21 06:53:07;;;;;;;99.90;11.50;;;;;;;27.69;98.79;100457.48;1714199;82;21024;-69
2022/08/21 06:55:38;;;;;;;90.22;12.25;;;;;;;27.76;98.09;100447.02;1717984;81;21040;-69
2022/08/21 06:58:06;;;;;;;91.80;12.20;;;;;;;27.87;99.73;100457.16;1710976;84;21023;-69
2022/08/21 07:00:35;;;;;;;98.17;12.13;;;;;;;27.84;98.86;100450.90;1713671;82;21055;-69
2022/08/21 07:03:02;;;;;;;95.05;12.90;;;;;;;27.99;99.71;100454.89;1710738;84;21028;-70
2022/08/21 07:05:31;;;;;;;103.17;12.60;;;;;;;28.00;97.38;100451.73;1717270;82;21040;-69
2022/08/21 07:07:58;;;;;;;92.35;12.58;;;;;;;27.97;100.00;100448.45;1720261;83;21557;-69
2022/08/21 07:10:27;;;;;;;94.03;13.55;;;;;;;28.19;100.00;100443.75;1728891;82;21063;-69
2022/08/21 07:12:56;;;;;;;112.22;14.60;;;;;;;28.35;99.65;100439.06;1715638;82;21512;-69
2022/08/21 07:15:24;;;;;;;111.88;14.38;;;;;;;28.33;95.42;100442.91;1723918;83;21011;-69
2022/08/21 07:17:51;;;;;;;113.65;14.78;;;;;;;28.37;94.72;100450.28;1713475;83;21094;-69
2022/08/21 07:20:19;;;;;;;104.45;13.90;;;;;;;28.40;95.05;100454.37;1714318;83;21520;-69
2022/08/21 07:22:47;;;;;;;108.55;14.23;;;;;;;28.45;95.19;100449.36;1714587;83;21023;-69
2022/08/21 07:25:14;;;;;;;113.72;13.18;;;;;;;28.36;95.39;100443.33;1723579;83;21515;-69
2022/08/21 07:27:41;;;;;;;105.37;13.22;;;;;;;28.53;95.73;100447.14;1711027;82;21043;-68
2022/08/21 07:30:11;;;;;;;109.12;14.45;;;;;;;28.58;97.13;100447.39;1713851;83;21099;-69
2022/08/21 07:32:37;;;;;;;111.50;14.23;;;;;;;28.61;96.85;100451.48;1710893;83;21000;-68
2022/08/21 07:35:07;;;;;;;101.90;13.43;;;;;;;28.81;97.12;100451.17;1721054;83;21026;-69
2022/08/21 07:37:34;;;;;;;116.50;13.60;;;;;;;29.11;97.94;100457.72;1711101;84;21122;-68
2022/08/21 07:40:02;;;;;;;90.25;12.55;;;;;;;29.32;93.19;100461.68;1722067;82;21039;-69
2022/08/21 07:42:30;;;;;;;114.75;15.13;;;;;;;29.48;95.16;100456.61;1716486;83;21075;-69
2022/08/21 07:44:57;;;;;;;113.92;13.80;;;;;;;29.63;94.50;100456.49;1711031;83;21067;-69
2022/08/21 07:47:24;;;;;;;110.80;14.23;;;;;;;29.70;92.62;100454.69;1717478;83;21052;-69
2022/08/21 07:49:51;;;;;;;107.85;13.65;;;;;;;29.73;92.17;100447.71;1710894;84;21531;-68
2022/08/21 07:52:19;;;;;;;93.05;13.98;;;;;;;29.64;89.52;100455.98;1711035;83;21043;-69
2022/08/21 07:54:47;;;;;;;111.22;13.85;;;;;;;29.53;89.24;100444.89;1710809;83;22104;-68
2022/08/21 07:57:14;;;;;;;103.05;14.35;;;;;;;29.16;94.05;100446.05;1713868;83;21046;-68
2022/08/21 07:59:41;;;;;;;111.25;14.20;;;;;;;29.04;91.91;100448.36;1692246;83;21056;-68
2022/08/21 08:02:09;;;;;;;112.35;14.47;;;;;;;29.35;91.75;100443.23;1695946;83;21048;-69
2022/08/21 08:04:36;;;;;;;116.05;14.47;;;;;;;29.53;88.70;100449.38;1697827;83;21074;-69
2022/08/21 08:07:03;;;;;;;119.57;15.58;;;;;;;29.58;87.90;100440.84;1697903;83;21096;-69
2022/08/21 08:09:31;;;;;;;102.07;14.38;;;;;;;29.69;88.31;100449.59;1703926;82;21295;-68
2022/08/21 08:11:58;;;;;;;104.12;14.13;;;;;;;29.74;90.49;100446.68;1713083;82;21083;-68
2022/08/21 08:14:26;;;;;;;100.05;14.25;;;;;;;29.79;87.88;100440.81;1702089;84;21108;-69
2022/08/21 08:16:53;;;;;;;97.70;14.43;;;;;;;29.88;89.49;100440.13;1690819;84;21074;-68
2022/08/21 08:19:20;;;;;;;108.85;13.95;;;;;;;29.66;86.11;100439.36;1720739;83;21028;-68
2022/08/21 08:21:47;;;;;;;114.72;13.98;;;;;;;29.74;85.35;100436.58;1720407;83;21150;-68
2022/08/21 08:24:14;;;;;;;102.60;13.48;;;;;;;29.73;88.67;100435.77;1720652;83;21043;-68
2022/08/21 08:26:42;;;;;;;77.37;12.78;;;;;;;30.03;89.26;100435.53;1720281;82;21091;-68
2022/08/21 08:29:09;;;;;;;93.17;13.15;;;;;;;30.12;89.36;100434.84;1721471;83;21064;-69
2022/08/21 08:31:36;;;;;;;98.07;13.65;;;;;;;30.09;87.39;100435.22;1721336;83;21098;-69
2022/08/21 08:34:03;;;;;;;100.10;13.25;;;;;;;30.08;87.43;100437.58;1721331;82;21080;-69
2022/08/21 08:36:36;;;;;;;96.25;13.38;;;;;;;30.00;86.05;100431.92;1717351;82;21025;-69
2022/08/21 08:39:05;;;;;;;101.90;12.47;;;;;;;30.34;88.22;100426.27;1712393;83;21051;-69
2022/08/21 08:41:33;;;;;;;77.92;11.45;;;;;;;30.36;86.94;100426.89;1719559;82;21086;-69
2022/08/21 08:44:04;;;;;;;98.62;12.43;;;;;;;29.97;85.10;100434.98;1707789;84;21044;-69
2022/08/21 08:46:39;;;;;;;113.37;14.03;;;;;;;30.04;87.21;100434.50;1717989;83;21054;-69
2022/08/21 08:49:23;;;;;;;93.55;12.33;;;;;;;30.16;87.84;100437.41;1706375;83;21080;-68
2022/08/21 08:52:07;;;;;;;89.20;13.58;;;;;;;30.60;86.88;100426.02;1718106;83;21539;-68
2022/08/21 08:54:43;;;;;;;96.45;13.43;;;;;;;30.66;85.03;100432.69;1720670;83;21090;-68
2022/08/21 08:57:20;;;;;;;113.03;13.10;;;;;;;30.98;83.18;100433.47;1721537;82;21606;-69
2022/08/21 08:59:55;;;;;;;105.95;13.03;;;;;;;30.91;83.72;100440.11;1721605;83;21039;-69
2022/08/21 09:02:23;;;;;;;105.55;12.73;;;;;;;30.46;81.09;100440.61;1721588;83;21164;-69
2022/08/21 09:04:52;;;;;;;95.00;11.78;;;;;;;30.15;80.60;100452.53;1721632;83;21078;-69
2022/08/21 09:07:49;;;;;;;96.20;12.35;;;;;;;30.03;80.72;100450.61;1721323;82;21004;-68
2022/08/21 09:10:24;;;;;;;98.90;11.90;;;;;;;30.40;83.41;100457.86;1706600;82;21547;-68
2022/08/21 09:13:05;;;;;;;78.95;10.08;;;;;;;30.93;81.21;100451.36;1709809;84;21032;-68
2022/08/21 09:15:58;;;;;;;92.95;10.03;;;;;;;30.52;78.96;100453.61;1711057;83;21040;-68
2022/08/21 09:18:54;;;;;;;70.57;9.83;;;;;;;30.66;78.63;100451.81;1684316;83;21453;-69
2022/08/21 09:21:41;;;;;;;87.65;10.28;;;;;;;30.89;81.00;100458.11;1647168;84;21040;-69
2022/08/21 09:24:36;;;;;;;87.30;9.45;;;;;;;31.00;78.65;100468.12;1706086;84;21032;-69
2022/08/21 09:27:14;;;;;;;85.60;10.03;;;;;;;30.83;78.91;100458.88;1715938;83;21048;-69
2022/08/21 09:29:47;;;;;;;79.80;9.63;;;;;;;30.28;79.27;100469.02;1721622;83;21542;-69
2022/08/21 09:32:24;;;;;;;77.25;8.98;;;;;;;30.45;80.09;100464.19;1721622;82;21055;-68
2022/08/21 09:35:12;;;;;;;64.47;9.53;;;;;;;30.26;80.94;100458.28;1721570;82;20996;-68
2022/08/21 09:38:02;;;;;;;66.92;9.55;;;;;;;30.18;81.66;100452.63;1704826;83;21079;-69
2022/08/21 09:40:44;;;;;;;64.35;8.75;;;;;;;29.90;81.66;100442.08;1716196;82;21000;-68
2022/08/21 09:43:21;;;;;;;62.13;8.45;;;;;;;30.16;82.81;100440.87;1717361;82;21084;-68
2022/08/21 09:45:53;;;;;;;59.77;7.90;;;;;;;30.15;80.55;100435.27;1661280;85;21080;-69
2022/08/21 09:48:24;;;;;;;71.57;8.98;;;;;;;30.25;79.30;100442.03;1671658;85;21138;-68
2022/08/21 09:50:53;;;;;;;74.20;9.35;;;;;;;30.04;80.07;100429.19;1653989;84;21098;-68
2022/08/21 09:53:30;;;;;;;72.00;8.68;;;;;;;29.98;78.83;100426.51;1672811;83;21559;-68
2022/08/21 09:58:51;;;;;;;70.15;8.63;;;;;;;30.15;77.03;100422.48;1707452;81;21129;-68
2022/08/21 10:01:25;;;;;;;60.38;8.25;;;;;;;30.44;78.20;100412.63;1715288;82;20995;-68
2022/08/21 10:04:12;;;;;;;62.35;8.53;;;;;;;30.83;76.02;100416.36;1719869;82;21074;-69
2022/08/21 10:06:41;;;;;;;85.97;8.68;;;;;;;31.38;75.14;100416.17;1720767;82;21086;-68
2022/08/21 10:09:13;;;;;;;59.83;7.90;;;;;;;31.13;73.03;100413.63;1720393;82;21086;-68
2022/08/21 10:11:48;;;;;;;63.23;8.10;;;;;;;30.99;74.45;100409.86;1718452;82;21503;-69
2022/08/21 10:15:05;;;;;;;58.78;7.75;;;;;;;31.50;71.34;100402.05;1691228;82;21602;-66
2022/08/21 10:17:47;;;;;;;72.58;7.87;;;;;;;31.77;69.21;100391.33;1715979;82;21011;-68
2022/08/21 10:20:46;;;;;;;74.40;7.78;;;;;;;31.29;69.83;100399.63;1719888;82;21518;-68
2022/08/21 10:23:41;;;;;;;71.15;8.03;;;;;;;31.54;69.36;100399.80;1717452;82;21118;-68
2022/08/21 10:26:22;;;;;;;50.45;6.37;;;;;;;31.22;69.50;100377.00;1703445;82;21070;-68
2022/08/21 10:29:10;;;;;;;74.87;7.67;;;;;;;31.58;69.36;100382.91;1721247;82;21063;-68
2022/08/21 10:31:51;;;;;;;58.00;7.47;;;;;;;31.49;67.67;100395.60;1711337;83;21027;-69
2022/08/21 10:34:42;;;;;;;60.83;7.33;;;;;;;31.61;68.37;100386.47;1617963;84;21059;-68
2022/08/21 10:37:26;;;;;;;55.17;6.67;;;;;;;31.50;68.40;100388.75;1699508;82;21131;-68
2022/08/21 10:40:32;;;;;;;52.15;7.22;;;;;;;31.45;70.08;100395.71;1719444;82;21039;-69
2022/08/21 10:43:23;;;;;;;58.25;6.92;;;;;;;31.61;69.99;100401.11;1723587;82;21495;-68
2022/08/21 10:46:03;;;;;;;60.20;6.80;;;;;;;31.65;71.21;100403.66;1665464;83;21019;-69
2022/08/21 10:49:00;;;;;;;59.35;7.28;;;;;;;31.64;69.73;100408.69;1728990;82;21038;-68
2022/08/21 10:51:42;;;;;;;53.92;6.80;;;;;;;31.40;69.12;100411.46;1715704;82;21075;-68
2022/08/21 10:54:39;;;;;;;56.60;6.97;;;;;;;31.07;71.44;100408.33;1696317;82;21626;-69
2022/08/21 10:57:23;;;;;;;56.05;6.30;;;;;;;31.10;73.16;100410.07;1708498;82;21047;-69
2022/08/21 10:59:56;;;;;;;47.98;6.35;;;;;;;31.25;69.59;100410.37;1719780;82;21087;-69
2022/08/21 11:02:38;;;;;;;55.20;6.10;;;;;;;31.28;70.13;100415.26;1705069;83;21039;-68
2022/08/21 11:05:32;;;;;;;48.68;6.00;;;;;;;31.25;70.18;100399.73;1719300;82;21000;-69
2022/08/21 11:08:35;;;;;;;52.98;6.42;;;;;;;31.34;69.07;100405.12;1717384;82;21008;-68
2022/08/21 11:11:14;;;;;;;49.53;6.42;;;;;;;31.72;69.90;100395.16;1719594;82;21601;-69
2022/08/21 11:13:50;;;;;;;67.95;15.05;;;;;;;31.58;69.19;100390.89;1720137;82;21562;-69
2022/08/21 11:16:38;;;;;;;66.22;15.20;;;;;;;31.51;69.64;100382.94;1692403;84;21058;-69
2022/08/21 11:19:25;;;;;;;62.08;7.17;;;;;;;31.69;70.18;100385.75;1694898;82;21074;-69
2022/08/21 11:22:19;;;;;;;42.90;6.35;;;;;;;31.63;69.21;100380.10;1716862;82;21003;-68
2022/08/21 11:25:13;;;;;;;43.83;9.45;;;;;;;31.68;67.43;67685.43;1720658;82;21027;-69
2022/08/21 23:51:55;;;;;;;56.95;5.95;;;;;;;;;;1806610;78;21016;-70
2022/08/21 23:54:29;;;;;;;72.75;8.10;;;;;;;;;;1795628;79;21031;-70
2022/08/21 23:57:22;;;;;;;72.20;7.70;;;;;;;;;;1792805;79;21478;-70
